createdAt,value
2023-05-14T00:01:28.410Z,6.60
2023-05-14T00:03:56.422Z,7.60
2023-05-14T00:06:24.306Z,6.57
2023-05-14T00:08:53.505Z,6.67
2023-05-14T00:11:22.136Z,6.60
2023-05-14T00:13:50.404Z,6.10
2023-05-14T00:16:18.352Z,6.50
2023-05-14T00:18:46.381Z,6.63
2023-05-14T00:21:14.294Z,7.07
2023-05-14T00:23:42.184Z,7.20
2023-05-14T00:26:11.372Z,7.10
2023-05-14T00:28:39.977Z,7.03
2023-05-14T00:31:07.814Z,7.77
2023-05-14T00:33:36.216Z,6.60
2023-05-14T00:36:04.341Z,6.23
2023-05-14T00:38:32.226Z,5.60
2023-05-14T00:41:00.091Z,5.80
2023-05-14T00:43:29.336Z,6.00
2023-05-14T00:45:57.312Z,5.77
2023-05-14T00:48:25.896Z,5.93
2023-05-14T00:50:53.826Z,5.50
2023-05-14T00:53:21.883Z,5.90
2023-05-14T00:55:50.783Z,5.83
2023-05-14T00:58:19.073Z,6.50
2023-05-14T01:00:48.560Z,5.47
2023-05-14T01:03:16.709Z,5.77
2023-05-14T01:05:52.565Z,5.47
2023-05-14T01:08:28.869Z,5.87
2023-05-14T01:11:02.016Z,5.37
2023-05-14T01:13:34.990Z,5.37
2023-05-14T01:16:05.650Z,5.23
2023-05-14T01:18:34.420Z,5.07
2023-05-14T01:21:02.934Z,5.10
2023-05-14T01:23:32.254Z,4.60
2023-05-14T01:26:00.092Z,4.80
2023-05-14T01:28:30.575Z,4.60
2023-05-14T01:31:01.813Z,4.70
2023-05-14T01:33:30.518Z,5.37
2023-05-14T01:35:58.811Z,6.03
2023-05-14T01:38:27.517Z,5.50
2023-05-14T01:40:57.945Z,5.23
2023-05-14T01:43:25.932Z,4.70
2023-05-14T01:45:55.264Z,5.10
2023-05-14T01:48:23.573Z,5.77
2023-05-14T01:50:52.387Z,6.03
2023-05-14T01:53:20.599Z,5.60
2023-05-14T01:55:48.469Z,5.80
2023-05-14T01:58:17.734Z,5.33
2023-05-14T02:00:45.595Z,5.17
2023-05-14T02:03:13.529Z,5.47
2023-05-14T02:05:41.647Z,5.03
2023-05-14T02:08:09.482Z,4.80
2023-05-14T02:10:37.451Z,4.80
2023-05-14T02:13:05.386Z,4.63
2023-05-14T02:15:34.634Z,4.87
2023-05-14T02:18:02.602Z,4.63
2023-05-14T02:20:30.657Z,4.80
2023-05-14T02:22:58.609Z,4.40
2023-05-14T02:25:26.410Z,4.30
2023-05-14T02:27:54.378Z,4.43
2023-05-14T02:30:25.214Z,4.37
2023-05-14T02:32:54.996Z,4.43
2023-05-14T02:35:22.931Z,4.33
2023-05-14T02:37:50.800Z,4.50
2023-05-14T02:40:18.879Z,4.60
2023-05-14T02:42:46.713Z,4.33
2023-05-14T02:45:14.589Z,4.50
2023-05-14T02:47:43.521Z,4.20
2023-05-14T02:50:12.897Z,4.00
2023-05-14T02:52:40.786Z,4.87
2023-05-14T02:55:09.418Z,4.20
2023-05-14T02:57:37.470Z,4.10
2023-05-14T03:00:06.588Z,4.20
2023-05-14T03:02:35.726Z,4.73
2023-05-14T03:05:04.310Z,4.67
2023-05-14T03:07:33.587Z,4.40
2023-05-14T03:10:01.582Z,4.63
2023-05-14T03:12:29.664Z,4.60
2023-05-14T03:14:57.541Z,4.30
2023-05-14T03:17:25.466Z,4.30
2023-05-14T03:19:53.357Z,4.20
2023-05-14T03:22:21.316Z,4.50
2023-05-14T03:24:50.794Z,4.53
2023-05-14T03:27:18.746Z,4.20
2023-05-14T03:29:46.604Z,4.57
2023-05-14T03:32:14.494Z,4.10
2023-05-14T03:34:42.703Z,4.27
2023-05-14T03:37:10.934Z,4.20
2023-05-14T03:39:38.819Z,4.50
2023-05-14T03:42:08.290Z,4.50
2023-05-14T03:44:36.274Z,4.37
2023-05-14T03:47:05.161Z,4.27
2023-05-14T03:49:33.171Z,4.67
2023-05-14T03:52:01.257Z,4.47
2023-05-14T03:54:29.118Z,4.40
2023-05-14T03:56:56.930Z,4.90
2023-05-14T03:59:26.151Z,4.97
2023-05-14T04:01:54.991Z,4.60
2023-05-14T04:04:22.981Z,4.57
2023-05-14T04:06:50.820Z,4.70
2023-05-14T04:09:18.665Z,4.70
2023-05-14T04:11:46.596Z,4.20
2023-05-14T04:14:14.497Z,5.07
2023-05-14T04:16:45.133Z,4.93
2023-05-14T04:19:13.183Z,4.90
2023-05-14T04:21:41.186Z,4.97
2023-05-14T04:24:09.307Z,4.73
2023-05-14T04:26:37.268Z,4.27
2023-05-14T04:29:05.106Z,4.77
2023-05-14T04:31:33.036Z,4.50
2023-05-14T04:34:02.296Z,5.40
2023-05-14T04:36:30.133Z,4.70
2023-05-14T04:38:57.963Z,4.67
2023-05-14T04:41:26.163Z,4.83
2023-05-14T04:43:57.107Z,4.70
2023-05-14T04:46:24.963Z,4.93
2023-05-14T04:48:52.912Z,5.07
2023-05-14T04:51:22.206Z,4.60
2023-05-14T04:53:50.145Z,4.80
2023-05-14T04:56:18.044Z,4.90
2023-05-14T04:58:45.915Z,4.47
2023-05-14T05:01:13.857Z,5.10
2023-05-14T05:03:41.896Z,5.07
2023-05-14T05:06:09.781Z,5.10
2023-05-14T05:08:38.984Z,4.97
2023-05-14T05:11:06.905Z,4.73
2023-05-14T05:13:34.738Z,4.20
2023-05-14T05:16:03.629Z,5.10
2023-05-14T05:18:31.520Z,4.90
2023-05-14T05:20:59.348Z,5.03
2023-05-14T05:23:27.234Z,4.87
2023-05-14T05:25:56.428Z,4.87
2023-05-14T05:28:24.307Z,4.33
2023-05-14T05:30:52.162Z,4.60
2023-05-14T05:33:20.060Z,4.83
2023-05-14T05:35:48.310Z,4.37
2023-05-14T05:38:18.138Z,4.27
2023-05-14T05:40:46.016Z,4.90
2023-05-14T05:43:16.073Z,4.57
2023-05-14T05:45:43.986Z,4.60
2023-05-14T05:48:12.018Z,5.47
2023-05-14T05:50:42.141Z,5.13
2023-05-14T05:53:10.125Z,4.50
2023-05-14T05:55:38.029Z,4.90
2023-05-14T05:58:05.886Z,4.90
2023-05-14T06:00:35.202Z,4.80
2023-05-14T06:03:03.062Z,4.93
2023-05-14T06:05:31.082Z,4.87
2023-05-14T06:07:58.994Z,4.83
2023-05-14T06:10:26.804Z,4.97
2023-05-14T06:12:54.613Z,5.40
2023-05-14T06:15:22.429Z,5.00
2023-05-14T06:17:51.656Z,5.53
2023-05-14T06:20:20.057Z,4.77
2023-05-14T06:22:47.949Z,4.63
2023-05-14T06:25:16.017Z,5.10
2023-05-14T06:27:44.045Z,4.60
2023-05-14T06:30:13.126Z,4.90
2023-05-14T06:32:41.058Z,5.30
2023-05-14T06:35:12.777Z,4.53
2023-05-14T06:37:40.624Z,4.63
2023-05-14T06:40:09.484Z,4.60
2023-05-14T06:42:37.326Z,4.47
2023-05-14T06:45:06.981Z,4.10
2023-05-14T06:47:34.985Z,4.60
2023-05-14T06:50:03.122Z,4.70
2023-05-14T06:52:32.778Z,4.70
2023-05-14T06:55:01.063Z,4.83
2023-05-14T06:57:28.980Z,4.27
2023-05-14T06:59:57.465Z,3.97
2023-05-14T07:02:25.300Z,4.63
2023-05-14T07:04:53.431Z,4.33
2023-05-14T07:07:21.437Z,4.73
2023-05-14T07:09:50.991Z,4.50
2023-05-14T07:12:18.864Z,4.73
2023-05-14T07:14:46.714Z,4.50
2023-05-14T07:17:14.695Z,4.47
2023-05-14T07:19:42.783Z,3.87
2023-05-14T07:22:10.602Z,4.47
2023-05-14T07:24:38.433Z,4.20
2023-05-14T07:27:08.471Z,4.40
2023-05-14T07:29:36.460Z,4.30
2023-05-14T07:32:04.620Z,4.53
2023-05-14T07:34:32.548Z,3.90
2023-05-14T07:37:01.176Z,4.53
2023-05-14T07:39:29.075Z,4.23
2023-05-14T07:41:56.918Z,4.40
2023-05-14T07:44:26.202Z,4.10
2023-05-14T07:46:54.182Z,3.87
2023-05-14T07:49:22.027Z,4.00
2023-05-14T07:51:49.892Z,3.80
2023-05-14T07:54:17.853Z,4.00
2023-05-14T07:56:45.848Z,3.37
2023-05-14T07:59:13.720Z,3.97
2023-05-14T08:01:43.074Z,3.80
2023-05-14T08:04:11.814Z,3.60
2023-05-14T08:06:39.722Z,3.87
2023-05-14T08:09:08.651Z,3.80
2023-05-14T08:11:36.486Z,3.90
2023-05-14T08:14:04.316Z,4.10
2023-05-14T08:16:32.241Z,3.50
2023-05-14T08:19:01.518Z,3.50
2023-05-14T08:21:29.369Z,3.40
2023-05-14T08:23:57.203Z,3.27
2023-05-14T08:26:25.836Z,4.20
2023-05-14T08:28:54.220Z,3.63
2023-05-14T08:31:22.225Z,3.77
2023-05-14T08:33:50.601Z,3.90
2023-05-14T08:36:19.803Z,3.17
2023-05-14T08:38:48.464Z,3.37
2023-05-14T08:41:16.736Z,3.20
2023-05-14T08:43:46.764Z,3.53
2023-05-14T08:46:15.853Z,3.37
2023-05-14T08:48:44.360Z,3.33
2023-05-14T08:51:12.225Z,3.10
2023-05-14T08:53:41.569Z,3.43
2023-05-14T08:56:09.744Z,3.40
2023-05-14T08:58:37.558Z,3.37
2023-05-14T09:01:05.697Z,4.13
2023-05-14T09:03:33.941Z,3.10
2023-05-14T09:06:02.103Z,2.90
2023-05-14T09:08:30.531Z,3.20
2023-05-14T09:10:59.738Z,3.30
2023-05-14T09:13:28.418Z,3.60
2023-05-14T09:15:56.728Z,3.10
2023-05-14T09:18:24.654Z,3.20
2023-05-14T09:20:53.064Z,2.90
2023-05-14T09:23:21.048Z,3.07
2023-05-14T09:25:49.757Z,3.43
2023-05-14T09:28:21.187Z,3.10
2023-05-14T09:30:52.088Z,3.37
2023-05-14T09:33:27.746Z,3.50
2023-05-14T09:35:59.073Z,3.10
2023-05-14T09:38:29.971Z,3.30
2023-05-14T09:40:58.034Z,3.10
2023-05-14T09:43:27.340Z,3.20
2023-05-14T09:45:55.225Z,2.87
2023-05-14T09:48:23.184Z,2.90
2023-05-14T09:50:52.090Z,3.07
2023-05-14T09:53:20.036Z,2.90
2023-05-14T09:55:49.232Z,2.90
2023-05-14T09:58:17.218Z,3.13
2023-05-14T10:00:47.699Z,2.97
2023-05-14T10:03:18.784Z,3.20
2023-05-14T10:05:50.060Z,3.13
2023-05-14T10:08:22.728Z,3.03
2023-05-14T10:10:51.848Z,3.00
2023-05-14T10:13:21.944Z,3.30
2023-05-14T10:15:58.116Z,3.10
2023-05-14T10:18:26.394Z,3.70
2023-05-14T10:20:58.697Z,3.07
2023-05-14T10:23:26.667Z,2.83
2023-05-14T10:25:54.658Z,3.20
2023-05-14T10:28:22.597Z,3.60
2023-05-14T10:30:51.942Z,3.30
2023-05-14T10:33:20.291Z,3.10
2023-05-14T10:35:59.408Z,3.23
2023-05-14T10:38:28.407Z,3.43
2023-05-14T10:40:58.835Z,3.13
2023-05-14T10:43:28.963Z,3.00
2023-05-14T10:45:59.302Z,3.23
2023-05-14T10:48:27.302Z,3.23
2023-05-14T10:50:55.561Z,3.30
2023-05-14T10:53:32.918Z,3.20
2023-05-14T10:56:05.806Z,3.07
2023-05-14T10:58:36.916Z,3.23
2023-05-14T11:01:07.272Z,3.37
2023-05-14T11:03:41.163Z,3.30
2023-05-14T11:06:09.926Z,3.60
2023-05-14T11:08:38.449Z,3.40
2023-05-14T11:11:07.237Z,3.73
2023-05-14T11:13:35.109Z,4.80
2023-05-14T11:16:12.016Z,3.30
2023-05-14T11:18:54.419Z,3.47
2023-05-14T11:21:22.302Z,2.90
2023-05-14T11:23:50.145Z,3.33
2023-05-14T11:26:20.105Z,3.60
2023-05-14T11:28:49.523Z,3.30
2023-05-14T11:31:17.443Z,4.27
2023-05-14T11:33:45.484Z,3.67
2023-05-14T11:36:14.756Z,3.53
2023-05-14T11:38:48.665Z,4.23
2023-05-14T11:41:16.547Z,3.37
2023-05-14T11:43:45.593Z,3.27
2023-05-14T11:46:17.905Z,3.70
2023-05-14T11:48:46.054Z,3.20
2023-05-14T11:51:15.332Z,2.90
2023-05-14T11:53:43.195Z,3.20
2023-05-14T11:56:11.341Z,3.80
2023-05-14T11:58:39.303Z,3.63
2023-05-14T12:01:07.254Z,3.70
2023-05-14T12:03:36.096Z,3.90
2023-05-14T12:06:07.867Z,3.40
2023-05-14T12:08:38.288Z,3.40
2023-05-14T12:11:06.845Z,3.77
2023-05-14T12:13:34.692Z,3.37
2023-05-14T12:16:03.654Z,3.20
2023-05-14T12:18:32.966Z,3.93
2023-05-14T12:21:03.660Z,3.70
2023-05-14T12:23:32.252Z,3.57
2023-05-14T12:26:05.944Z,3.83
2023-05-14T12:28:36.044Z,3.20
2023-05-14T12:31:05.907Z,3.30
2023-05-14T12:33:33.741Z,3.40
2023-05-14T12:36:14.000Z,3.33
2023-05-14T12:38:49.094Z,3.30
2023-05-14T12:41:18.831Z,3.10
2023-05-14T12:43:48.704Z,3.30
2023-05-14T12:46:16.617Z,3.50
2023-05-14T12:48:44.533Z,3.47
2023-05-14T12:51:12.393Z,3.53
2023-05-14T12:53:40.188Z,3.57
2023-05-14T12:56:08.448Z,3.10
2023-05-14T12:58:37.710Z,3.23
2023-05-14T13:01:05.942Z,3.77
2023-05-14T13:03:34.015Z,3.40
2023-05-14T13:06:02.173Z,3.17
2023-05-14T13:08:30.092Z,2.87
2023-05-14T13:10:57.988Z,2.93
2023-05-14T13:13:26.196Z,3.30
2023-05-14T13:15:55.516Z,2.97
2023-05-14T13:18:23.382Z,3.37
2023-05-14T13:20:51.767Z,3.17
2023-05-14T13:23:19.669Z,3.87
2023-05-14T13:25:49.169Z,2.90
2023-05-14T13:28:17.798Z,3.30
2023-05-14T13:31:07.018Z,3.47
2023-05-14T13:33:36.949Z,3.70
2023-05-14T13:36:05.704Z,3.33
2023-05-14T13:38:33.717Z,2.97
2023-05-14T13:41:02.974Z,3.73
2023-05-14T13:43:31.315Z,3.67
2023-05-14T13:45:59.256Z,3.60
2023-05-14T13:48:28.867Z,3.90
2023-05-14T13:50:56.899Z,3.20
2023-05-14T13:53:25.636Z,3.40
2023-05-14T13:55:56.353Z,3.33
2023-05-14T13:58:24.928Z,4.80
2023-05-14T14:00:53.430Z,3.70
2023-05-14T14:03:21.431Z,2.73
2023-05-14T14:05:52.124Z,3.07
2023-05-14T14:08:23.768Z,2.90
2023-05-14T14:10:54.540Z,3.30
2023-05-14T14:13:23.239Z,3.40
2023-05-14T14:15:51.428Z,3.20
2023-05-14T14:18:19.308Z,3.03
2023-05-14T14:20:48.206Z,3.40
2023-05-14T14:23:17.403Z,2.73
2023-05-14T14:25:45.204Z,2.90
2023-05-14T14:28:13.560Z,3.23
2023-05-14T14:30:41.371Z,2.90
2023-05-14T14:33:09.371Z,3.20
2023-05-14T14:35:37.451Z,2.60
2023-05-14T14:38:05.413Z,2.87
2023-05-14T14:40:35.387Z,3.13
2023-05-14T14:43:03.252Z,3.33
2023-05-14T14:45:31.156Z,3.10
2023-05-14T14:48:23.957Z,3.37
2023-05-14T14:50:52.677Z,2.90
2023-05-14T14:53:20.771Z,2.87
2023-05-14T14:55:50.039Z,3.03
2023-05-14T14:58:19.750Z,2.80
2023-05-14T15:00:47.711Z,2.90
2023-05-14T15:03:16.125Z,2.97
2023-05-14T15:05:44.022Z,2.90
2023-05-14T15:08:11.990Z,2.90
2023-05-14T15:10:41.162Z,3.37
2023-05-14T15:13:11.235Z,3.33
2023-05-14T15:15:39.152Z,2.90
2023-05-14T15:18:07.262Z,2.77
2023-05-14T15:20:35.216Z,2.97
2023-05-14T15:23:03.170Z,3.10
2023-05-14T15:25:31.022Z,3.13
2023-05-14T15:27:58.909Z,3.20
2023-05-14T15:30:28.182Z,3.10
2023-05-14T15:32:56.575Z,3.63
2023-05-14T15:35:24.954Z,3.00
2023-05-14T15:37:57.601Z,3.13
2023-05-14T15:40:25.599Z,3.27
2023-05-14T15:42:53.601Z,3.10
2023-05-14T15:45:21.693Z,3.10
2023-05-14T15:47:50.933Z,3.00
2023-05-14T15:50:18.892Z,3.63
2023-05-14T15:52:46.771Z,3.37
2023-05-14T15:55:14.668Z,3.20
2023-05-14T15:57:42.479Z,3.20
2023-05-14T16:00:11.578Z,3.20
2023-05-14T16:02:40.372Z,3.00
2023-05-14T16:05:10.318Z,3.23
2023-05-14T16:07:38.200Z,3.90
2023-05-14T16:10:07.161Z,3.23
2023-05-14T16:12:35.081Z,3.27
2023-05-14T16:15:03.170Z,3.30
2023-05-14T16:17:33.601Z,3.43
2023-05-14T16:20:01.718Z,4.13
2023-05-14T16:22:32.582Z,3.50
2023-05-14T16:25:03.135Z,3.40
2023-05-14T16:27:31.405Z,4.40
2023-05-14T16:29:59.309Z,3.10
2023-05-14T16:32:27.612Z,3.47
2023-05-14T16:34:56.401Z,3.07
2023-05-14T16:37:24.270Z,3.10
2023-05-14T16:39:53.560Z,2.87
2023-05-14T16:42:21.520Z,3.23
2023-05-14T16:44:49.430Z,3.40
2023-05-14T16:47:17.267Z,3.20
2023-05-14T16:49:45.126Z,3.63
2023-05-14T16:52:12.977Z,3.80
2023-05-14T16:54:40.820Z,3.40
2023-05-14T16:57:10.239Z,3.13
2023-05-14T16:59:38.147Z,3.47
2023-05-14T17:02:06.055Z,3.50
2023-05-14T17:04:38.675Z,3.80
2023-05-14T17:07:06.937Z,3.70
2023-05-14T17:09:34.908Z,3.93
2023-05-14T17:12:02.861Z,3.50
2023-05-14T17:14:32.072Z,3.30
2023-05-14T17:16:59.895Z,3.60
2023-05-14T17:19:27.712Z,3.30
2023-05-14T17:21:55.645Z,3.53
2023-05-14T17:24:23.567Z,4.00
2023-05-14T17:26:51.394Z,4.27
2023-05-14T17:29:19.301Z,3.67
2023-05-14T17:31:50.815Z,3.63
2023-05-14T17:34:18.780Z,3.60
2023-05-14T17:36:46.654Z,11.93
2023-05-14T17:39:14.493Z,4.00
2023-05-14T17:41:42.697Z,3.83
2023-05-14T17:44:12.720Z,3.70
2023-05-14T17:46:41.559Z,3.80
2023-05-14T17:49:11.762Z,3.27
2023-05-14T17:51:39.575Z,3.43
2023-05-14T17:54:07.577Z,3.63
2023-05-14T17:56:35.586Z,3.83
2023-05-14T17:59:03.705Z,3.53
2023-05-14T18:01:32.052Z,3.73
2023-05-14T18:04:00.013Z,3.50
2023-05-14T18:06:29.262Z,3.40
2023-05-14T18:08:58.225Z,3.37
2023-05-14T18:11:26.263Z,3.90
2023-05-14T18:13:54.093Z,3.87
2023-05-14T18:16:21.970Z,4.30
2023-05-14T18:18:49.907Z,4.10
2023-05-14T18:21:17.927Z,3.90
2023-05-14T18:23:47.093Z,4.57
2023-05-14T18:26:15.148Z,4.13
2023-05-14T18:28:43.017Z,3.83
2023-05-14T18:31:10.850Z,4.13
2023-05-14T18:33:38.745Z,4.33
2023-05-14T18:36:07.030Z,4.47
2023-05-14T18:38:35.096Z,4.30
2023-05-14T18:41:04.398Z,4.13
2023-05-14T18:43:32.278Z,4.57
2023-05-14T18:46:00.302Z,3.97
2023-05-14T18:48:28.145Z,4.27
2023-05-14T18:50:55.999Z,4.43
2023-05-14T18:53:23.875Z,5.00
2023-05-14T18:55:51.775Z,5.10
2023-05-14T18:58:21.655Z,4.50
2023-05-14T19:00:49.545Z,4.40
2023-05-14T19:03:17.453Z,5.00
2023-05-14T19:05:45.402Z,4.77
2023-05-14T19:08:13.338Z,5.20
2023-05-14T19:10:41.324Z,5.10
2023-05-14T19:13:09.156Z,5.40
2023-05-14T19:15:38.483Z,5.97
2023-05-14T19:18:06.441Z,5.87
2023-05-14T19:20:34.357Z,5.70
2023-05-14T19:23:02.244Z,5.63
2023-05-14T19:25:30.159Z,6.17
2023-05-14T19:27:58.086Z,5.80
2023-05-14T19:30:26.021Z,5.70
2023-05-14T19:32:55.273Z,5.57
2023-05-14T19:35:23.347Z,5.90
2023-05-14T19:37:51.387Z,5.87
2023-05-14T19:40:19.219Z,6.10
2023-05-14T19:42:47.600Z,5.90
2023-05-14T19:45:15.430Z,5.70
2023-05-14T19:47:43.723Z,6.03
2023-05-14T19:50:13.083Z,6.20
2023-05-14T19:52:40.886Z,5.87
2023-05-14T19:55:09.146Z,6.17
2023-05-14T19:57:38.793Z,6.17
2023-05-14T20:00:09.297Z,5.90
2023-05-14T20:02:41.929Z,5.67
2023-05-14T20:05:10.599Z,6.50
2023-05-14T20:07:40.619Z,6.00
2023-05-14T20:10:09.511Z,6.60
2023-05-14T20:12:37.495Z,5.70
2023-05-14T20:15:06.105Z,6.50
2023-05-14T20:17:33.978Z,6.63
2023-05-14T20:20:02.248Z,6.20
2023-05-14T20:22:30.408Z,6.20
2023-05-14T20:24:59.651Z,5.90
2023-05-14T20:27:27.514Z,6.93
2023-05-14T20:29:55.387Z,6.50
2023-05-14T20:32:24.930Z,7.33
2023-05-14T20:34:53.192Z,7.03
2023-05-14T20:37:23.922Z,7.80
2023-05-14T20:39:53.015Z,9.37
2023-05-14T20:42:22.348Z,8.27
2023-05-14T20:44:50.376Z,7.83
2023-05-14T20:47:21.288Z,7.87
2023-05-14T20:49:49.263Z,8.07
2023-05-14T20:52:17.230Z,7.07
2023-05-14T20:54:45.188Z,7.47
2023-05-14T20:57:15.178Z,7.23
2023-05-14T20:59:44.357Z,7.23
2023-05-14T21:02:12.441Z,7.17
2023-05-14T21:04:40.537Z,7.00
2023-05-14T21:07:08.478Z,6.37
2023-05-14T21:09:36.379Z,6.70
2023-05-14T21:12:04.238Z,6.20
2023-05-14T21:14:32.083Z,6.50
2023-05-14T21:17:01.313Z,6.93
2023-05-14T21:19:29.186Z,8.57
2023-05-14T21:21:57.089Z,7.67
2023-05-14T21:24:24.994Z,7.30
2023-05-14T21:26:53.684Z,6.77
2023-05-14T21:29:21.630Z,7.20
2023-05-14T21:31:50.128Z,7.23
2023-05-14T21:34:19.300Z,6.80
2023-05-14T21:36:47.211Z,7.13
2023-05-14T21:39:15.064Z,7.07
2023-05-14T21:41:43.060Z,7.07
2023-05-14T21:44:10.939Z,9.33
2023-05-14T21:46:38.929Z,8.23
2023-05-14T21:49:06.999Z,8.43
2023-05-14T21:51:36.460Z,8.30
2023-05-14T21:54:04.628Z,8.63
2023-05-14T21:56:32.544Z,7.57
2023-05-14T21:59:00.516Z,7.50
2023-05-14T22:01:28.356Z,7.60
2023-05-14T22:03:57.700Z,7.60
2023-05-14T22:06:27.041Z,7.57
2023-05-14T22:08:56.232Z,7.70
2023-05-14T22:11:24.109Z,7.23
2023-05-14T22:13:51.945Z,6.63
2023-05-14T22:16:19.994Z,7.57
2023-05-14T22:18:48.049Z,7.33
2023-05-14T22:21:15.950Z,6.70
2023-05-14T22:23:44.261Z,6.57
2023-05-14T22:26:13.871Z,7.03
2023-05-14T22:28:42.931Z,6.53
2023-05-14T22:31:10.875Z,7.03
2023-05-14T22:33:38.763Z,6.63
2023-05-14T22:36:07.502Z,6.70
2023-05-14T22:38:35.594Z,7.53
2023-05-14T22:41:03.639Z,7.40
2023-05-14T22:43:32.903Z,6.93
2023-05-14T22:46:00.773Z,7.60
2023-05-14T22:48:29.440Z,7.37
2023-05-14T22:50:57.481Z,6.77
2023-05-14T22:53:25.475Z,6.90
2023-05-14T22:55:53.531Z,7.07
2023-05-14T22:58:21.352Z,6.57
2023-05-14T23:00:50.584Z,6.77
2023-05-14T23:03:18.455Z,6.80
2023-05-14T23:05:46.325Z,6.60
2023-05-14T23:08:14.129Z,6.70
2023-05-14T23:10:42.016Z,6.87
2023-05-14T23:13:09.839Z,6.87
2023-05-14T23:15:38.670Z,6.67
2023-05-14T23:18:08.792Z,6.10
2023-05-14T23:20:36.739Z,5.70
2023-05-14T23:23:04.658Z,6.13
2023-05-14T23:25:33.068Z,6.20
2023-05-14T23:28:00.884Z,6.33
2023-05-14T23:30:28.796Z,6.47
2023-05-14T23:32:56.710Z,6.20
2023-05-14T23:35:26.305Z,6.10
2023-05-14T23:37:55.196Z,6.40
2023-05-14T23:40:23.026Z,6.00
2023-05-14T23:42:51.300Z,5.77
2023-05-14T23:45:19.338Z,6.67
2023-05-14T23:47:47.357Z,6.57
2023-05-14T23:50:15.171Z,5.90
2023-05-14T23:52:44.372Z,6.60
2023-05-14T23:55:12.168Z,6.60
2023-05-14T23:57:41.080Z,6.87
